sensor_id;sensor_type;location;lat;lon;timestamp;pressure;altitude;pressure_sealevel;temperature
65290;BMP180;51893;59.754;10.110;2022-07-23T00:00:54;101644.60;;;15.70
65290;BMP180;51893;59.754;10.110;2022-07-23T00:03:21;101647.80;;;15.70
65290;BMP180;51893;59.754;10.110;2022-07-23T00:05:49;101648.20;;;15.70
65290;BMP180;51893;59.754;10.110;2022-07-23T00:08:17;101644.80;;;15.70
65290;BMP180;51893;59.754;10.110;2022-07-23T00:10:45;101646.00;;;15.64
65290;BMP180;51893;59.754;10.110;2022-07-23T00:13:13;101642.00;;;15.60
65290;BMP180;51893;59.754;10.110;2022-07-23T00:15:41;101636.40;;;15.50
65290;BMP180;51893;59.754;10.110;2022-07-23T00:18:09;101636.80;;;15.50
65290;BMP180;51893;59.754;10.110;2022-07-23T00:20:37;101633.00;;;15.40
65290;BMP180;51893;59.754;10.110;2022-07-23T00:23:05;101631.40;;;15.40
65290;BMP180;51893;59.754;10.110;2022-07-23T00:25:32;101629.80;;;15.30
65290;BMP180;51893;59.754;10.110;2022-07-23T00:28:02;101627.80;;;15.30
65290;BMP180;51893;59.754;10.110;2022-07-23T00:30:31;101630.20;;;15.30
65290;BMP180;51893;59.754;10.110;2022-07-23T00:33:07;101624.00;;;15.22
65290;BMP180;51893;59.754;10.110;2022-07-23T00:35:38;101623.60;;;15.12
65290;BMP180;51893;59.754;10.110;2022-07-23T00:38:09;101623.00;;;15.10
65290;BMP180;51893;59.754;10.110;2022-07-23T00:40:38;101615.60;;;15.00
65290;BMP180;51893;59.754;10.110;2022-07-23T00:43:07;101621.60;;;15.00
65290;BMP180;51893;59.754;10.110;2022-07-23T00:45:35;101625.80;;;15.00
65290;BMP180;51893;59.754;10.110;2022-07-23T00:48:03;101617.20;;;14.90
65290;BMP180;51893;59.754;10.110;2022-07-23T00:50:31;101618.60;;;14.84
65290;BMP180;51893;59.754;10.110;2022-07-23T00:52:59;101614.40;;;14.80
65290;BMP180;51893;59.754;10.110;2022-07-23T00:55:27;101619.40;;;14.80
65290;BMP180;51893;59.754;10.110;2022-07-23T00:57:57;101617.00;;;14.76
65290;BMP180;51893;59.754;10.110;2022-07-23T01:00:24;101619.60;;;14.80
65290;BMP180;51893;59.754;10.110;2022-07-23T01:02:52;101622.20;;;14.80
65290;BMP180;51893;59.754;10.110;2022-07-23T01:05:20;101623.80;;;14.80
65290;BMP180;51893;59.754;10.110;2022-07-23T01:07:51;101613.80;;;14.70
65290;BMP180;51893;59.754;10.110;2022-07-23T01:10:24;101615.40;;;14.60
65290;BMP180;51893;59.754;10.110;2022-07-23T01:13:05;101614.40;;;14.50
65290;BMP180;51893;59.754;10.110;2022-07-23T01:15:37;101611.80;;;14.40
65290;BMP180;51893;59.754;10.110;2022-07-23T01:18:07;101614.20;;;14.32
65290;BMP180;51893;59.754;10.110;2022-07-23T01:20:36;101610.80;;;14.30
65290;BMP180;51893;59.754;10.110;2022-07-23T01:23:04;101607.60;;;14.20
65290;BMP180;51893;59.754;10.110;2022-07-23T01:25:32;101605.40;;;14.26
65290;BMP180;51893;59.754;10.110;2022-07-23T01:28:00;101608.40;;;14.30
65290;BMP180;51893;59.754;10.110;2022-07-23T01:30:28;101608.80;;;14.20
65290;BMP180;51893;59.754;10.110;2022-07-23T01:32:55;101609.60;;;14.20
65290;BMP180;51893;59.754;10.110;2022-07-23T01:35:23;101615.00;;;14.10
65290;BMP180;51893;59.754;10.110;2022-07-23T01:37:51;101611.00;;;14.10
65290;BMP180;51893;59.754;10.110;2022-07-23T01:40:20;101608.60;;;14.10
65290;BMP180;51893;59.754;10.110;2022-07-23T01:42:49;101609.40;;;14.00
65290;BMP180;51893;59.754;10.110;2022-07-23T01:45:17;101610.20;;;14.00
65290;BMP180;51893;59.754;10.110;2022-07-23T01:47:47;101612.20;;;14.04
65290;BMP180;51893;59.754;10.110;2022-07-23T01:50:15;101610.40;;;13.90
65290;BMP180;51893;59.754;10.110;2022-07-23T01:52:43;101601.20;;;13.88
65290;BMP180;51893;59.754;10.110;2022-07-23T01:55:11;101602.40;;;13.90
65290;BMP180;51893;59.754;10.110;2022-07-23T01:57:46;101596.00;;;13.80
65290;BMP180;51893;59.754;10.110;2022-07-23T02:00:14;101597.20;;;13.80
65290;BMP180;51893;59.754;10.110;2022-07-23T02:02:42;101596.00;;;13.80
65290;BMP180;51893;59.754;10.110;2022-07-23T02:05:10;101600.80;;;13.80
65290;BMP180;51893;59.754;10.110;2022-07-23T02:07:38;101595.40;;;13.80
65290;BMP180;51893;59.754;10.110;2022-07-23T02:10:07;101598.80;;;13.80
65290;BMP180;51893;59.754;10.110;2022-07-23T02:12:36;101598.40;;;13.70
65290;BMP180;51893;59.754;10.110;2022-07-23T02:15:04;101600.00;;;13.60
65290;BMP180;51893;59.754;10.110;2022-07-23T02:17:36;101600.80;;;13.50
65290;BMP180;51893;59.754;10.110;2022-07-23T02:20:06;101604.00;;;13.50
65290;BMP180;51893;59.754;10.110;2022-07-23T02:22:34;101603.80;;;13.50
65290;BMP180;51893;59.754;10.110;2022-07-23T02:25:07;101603.00;;;13.50
65290;BMP180;51893;59.754;10.110;2022-07-23T02:27:36;101602.20;;;13.40
65290;BMP180;51893;59.754;10.110;2022-07-23T02:30:05;101602.60;;;13.30
65290;BMP180;51893;59.754;10.110;2022-07-23T02:32:35;101598.80;;;13.32
65290;BMP180;51893;59.754;10.110;2022-07-23T02:35:04;101605.40;;;13.30
65290;BMP180;51893;59.754;10.110;2022-07-23T02:37:32;101616.40;;;13.30
65290;BMP180;51893;59.754;10.110;2022-07-23T02:40:00;101618.40;;;13.30
65290;BMP180;51893;59.754;10.110;2022-07-23T02:42:28;101618.40;;;13.30
65290;BMP180;51893;59.754;10.110;2022-07-23T02:44:56;101618.60;;;13.26
65290;BMP180;51893;59.754;10.110;2022-07-23T02:47:23;101613.80;;;13.20
65290;BMP180;51893;59.754;10.110;2022-07-23T02:49:51;101613.20;;;13.14
65290;BMP180;51893;59.754;10.110;2022-07-23T02:52:19;101612.80;;;13.10
65290;BMP180;51893;59.754;10.110;2022-07-23T02:54:47;101609.40;;;13.10
65290;BMP180;51893;59.754;10.110;2022-07-23T02:57:14;101607.00;;;13.10
65290;BMP180;51893;59.754;10.110;2022-07-23T02:59:42;101609.80;;;13.10
65290;BMP180;51893;59.754;10.110;2022-07-23T03:02:10;101609.20;;;13.10
65290;BMP180;51893;59.754;10.110;2022-07-23T03:04:38;101607.60;;;13.00
65290;BMP180;51893;59.754;10.110;2022-07-23T03:07:06;101605.40;;;13.00
65290;BMP180;51893;59.754;10.110;2022-07-23T03:09:33;101603.60;;;13.00
65290;BMP180;51893;59.754;10.110;2022-07-23T03:12:02;101603.60;;;13.00
65290;BMP180;51893;59.754;10.110;2022-07-23T03:14:29;101605.20;;;13.00
65290;BMP180;51893;59.754;10.110;2022-07-23T03:16:57;101614.20;;;13.00
65290;BMP180;51893;59.754;10.110;2022-07-23T03:19:27;101609.20;;;13.00
65290;BMP180;51893;59.754;10.110;2022-07-23T03:21:55;101608.60;;;13.00
65290;BMP180;51893;59.754;10.110;2022-07-23T03:24:22;101612.60;;;13.00
65290;BMP180;51893;59.754;10.110;2022-07-23T03:27:10;101609.60;;;13.00
65290;BMP180;51893;59.754;10.110;2022-07-23T03:29:39;101608.60;;;13.10
65290;BMP180;51893;59.754;10.110;2022-07-23T03:32:08;101611.40;;;13.10
65290;BMP180;51893;59.754;10.110;2022-07-23T03:34:36;101608.00;;;13.10
65290;BMP180;51893;59.754;10.110;2022-07-23T03:37:04;101602.60;;;13.10
65290;BMP180;51893;59.754;10.110;2022-07-23T03:39:32;101606.80;;;13.10
65290;BMP180;51893;59.754;10.110;2022-07-23T03:42:00;101614.60;;;13.20
65290;BMP180;51893;59.754;10.110;2022-07-23T03:44:28;101609.00;;;13.20
65290;BMP180;51893;59.754;10.110;2022-07-23T03:46:56;101612.40;;;13.20
65290;BMP180;51893;59.754;10.110;2022-07-23T03:49:24;101608.80;;;13.20
65290;BMP180;51893;59.754;10.110;2022-07-23T03:51:52;101602.40;;;13.20
65290;BMP180;51893;59.754;10.110;2022-07-23T03:54:20;101602.80;;;13.24
65290;BMP180;51893;59.754;10.110;2022-07-23T03:56:48;101597.00;;;13.28
65290;BMP180;51893;59.754;10.110;2022-07-23T03:59:16;101592.80;;;13.30
65290;BMP180;51893;59.754;10.110;2022-07-23T04:01:51;101584.80;;;13.30
65290;BMP180;51893;59.754;10.110;2022-07-23T04:04:19;101580.00;;;13.40
65290;BMP180;51893;59.754;10.110;2022-07-23T04:06:47;101579.00;;;13.48
65290;BMP180;51893;59.754;10.110;2022-07-23T04:09:15;101580.40;;;13.50
65290;BMP180;51893;59.754;10.110;2022-07-23T04:11:43;101575.80;;;13.50
65290;BMP180;51893;59.754;10.110;2022-07-23T04:14:11;101571.80;;;13.50
65290;BMP180;51893;59.754;10.110;2022-07-23T04:16:39;101570.60;;;13.50
65290;BMP180;51893;59.754;10.110;2022-07-23T04:19:07;101573.40;;;13.50
65290;BMP180;51893;59.754;10.110;2022-07-23T04:21:35;101569.80;;;13.58
65290;BMP180;51893;59.754;10.110;2022-07-23T04:24:03;101570.00;;;13.60
65290;BMP180;51893;59.754;10.110;2022-07-23T04:26:33;101565.20;;;13.60
65290;BMP180;51893;59.754;10.110;2022-07-23T04:29:00;101562.20;;;13.70
65290;BMP180;51893;59.754;10.110;2022-07-23T04:31:29;101558.60;;;13.70
65290;BMP180;51893;59.754;10.110;2022-07-23T04:34:03;101557.00;;;13.80
65290;BMP180;51893;59.754;10.110;2022-07-23T04:36:31;101559.40;;;13.90
65290;BMP180;51893;59.754;10.110;2022-07-23T04:38:59;101558.60;;;13.90
65290;BMP180;51893;59.754;10.110;2022-07-23T04:41:28;101557.40;;;14.00
65290;BMP180;51893;59.754;10.110;2022-07-23T04:43:56;101557.40;;;14.00
65290;BMP180;51893;59.754;10.110;2022-07-23T04:46:23;101557.40;;;14.08
65290;BMP180;51893;59.754;10.110;2022-07-23T04:48:52;101560.80;;;14.10
65290;BMP180;51893;59.754;10.110;2022-07-23T04:51:20;101560.20;;;14.10
65290;BMP180;51893;59.754;10.110;2022-07-23T04:53:48;101558.80;;;14.10
65290;BMP180;51893;59.754;10.110;2022-07-23T04:56:16;101562.80;;;14.20
65290;BMP180;51893;59.754;10.110;2022-07-23T04:58:44;101561.20;;;14.16
65290;BMP180;51893;59.754;10.110;2022-07-23T05:01:11;101563.60;;;14.10
65290;BMP180;51893;59.754;10.110;2022-07-23T05:03:39;101561.20;;;14.10
65290;BMP180;51893;59.754;10.110;2022-07-23T05:06:07;101562.80;;;14.14
65290;BMP180;51893;59.754;10.110;2022-07-23T05:08:36;101561.20;;;14.20
65290;BMP180;51893;59.754;10.110;2022-07-23T05:11:04;101558.60;;;14.30
65290;BMP180;51893;59.754;10.110;2022-07-23T05:13:32;101558.60;;;14.40
65290;BMP180;51893;59.754;10.110;2022-07-23T05:15:59;101562.00;;;14.40
65290;BMP180;51893;59.754;10.110;2022-07-23T05:18:27;101560.60;;;14.50
65290;BMP180;51893;59.754;10.110;2022-07-23T05:20:55;101560.40;;;14.60
65290;BMP180;51893;59.754;10.110;2022-07-23T05:23:23;101556.80;;;14.64
65290;BMP180;51893;59.754;10.110;2022-07-23T05:25:50;101555.40;;;14.70
65290;BMP180;51893;59.754;10.110;2022-07-23T05:28:18;101551.00;;;14.80
65290;BMP180;51893;59.754;10.110;2022-07-23T05:30:49;101549.60;;;14.80
65290;BMP180;51893;59.754;10.110;2022-07-23T05:33:20;101549.60;;;14.90
65290;BMP180;51893;59.754;10.110;2022-07-23T05:35:48;101546.80;;;14.96
65290;BMP180;51893;59.754;10.110;2022-07-23T05:38:16;101552.40;;;15.00
65290;BMP180;51893;59.754;10.110;2022-07-23T05:40:44;101556.80;;;15.00
65290;BMP180;51893;59.754;10.110;2022-07-23T05:43:11;101552.80;;;15.10
65290;BMP180;51893;59.754;10.110;2022-07-23T05:45:39;101552.40;;;15.20
65290;BMP180;51893;59.754;10.110;2022-07-23T05:48:07;101548.00;;;15.30
65290;BMP180;51893;59.754;10.110;2022-07-23T05:50:35;101547.60;;;15.30
65290;BMP180;51893;59.754;10.110;2022-07-23T05:53:03;101547.40;;;15.40
65290;BMP180;51893;59.754;10.110;2022-07-23T05:55:30;101540.00;;;15.48
65290;BMP180;51893;59.754;10.110;2022-07-23T05:57:59;101538.00;;;15.50
65290;BMP180;51893;59.754;10.110;2022-07-23T06:00:28;101543.20;;;15.60
65290;BMP180;51893;59.754;10.110;2022-07-23T06:02:56;101539.20;;;15.66
65290;BMP180;51893;59.754;10.110;2022-07-23T06:05:24;101539.20;;;15.70
65290;BMP180;51893;59.754;10.110;2022-07-23T06:07:52;101532.40;;;15.80
65290;BMP180;51893;59.754;10.110;2022-07-23T06:10:21;101527.40;;;15.90
65290;BMP180;51893;59.754;10.110;2022-07-23T06:12:49;101522.80;;;15.92
65290;BMP180;51893;59.754;10.110;2022-07-23T06:15:17;101520.60;;;16.00
65290;BMP180;51893;59.754;10.110;2022-07-23T06:17:45;101516.20;;;16.00
65290;BMP180;51893;59.754;10.110;2022-07-23T06:20:13;101518.80;;;16.10
65290;BMP180;51893;59.754;10.110;2022-07-23T06:22:40;101525.40;;;16.20
65290;BMP180;51893;59.754;10.110;2022-07-23T06:25:09;101522.60;;;16.30
65290;BMP180;51893;59.754;10.110;2022-07-23T06:27:47;101524.80;;;16.40
65290;BMP180;51893;59.754;10.110;2022-07-23T06:30:15;101523.00;;;16.50
65290;BMP180;51893;59.754;10.110;2022-07-23T06:32:47;101531.80;;;16.50
65290;BMP180;51893;59.754;10.110;2022-07-23T06:35:16;101529.40;;;16.60
65290;BMP180;51893;59.754;10.110;2022-07-23T06:37:45;101533.20;;;16.68
65290;BMP180;51893;59.754;10.110;2022-07-23T06:40:15;101532.40;;;16.70
65290;BMP180;51893;59.754;10.110;2022-07-23T06:42:42;101534.20;;;16.80
65290;BMP180;51893;59.754;10.110;2022-07-23T06:45:10;101537.60;;;16.80
65290;BMP180;51893;59.754;10.110;2022-07-23T06:47:38;101543.40;;;16.90
65290;BMP180;51893;59.754;10.110;2022-07-23T06:50:07;101543.80;;;17.00
65290;BMP180;51893;59.754;10.110;2022-07-23T06:52:35;101545.00;;;17.10
65290;BMP180;51893;59.754;10.110;2022-07-23T06:55:09;101543.40;;;17.14
65290;BMP180;51893;59.754;10.110;2022-07-23T06:57:38;101549.00;;;17.20
65290;BMP180;51893;59.754;10.110;2022-07-23T07:00:06;101554.80;;;17.30
65290;BMP180;51893;59.754;10.110;2022-07-23T07:02:34;101556.20;;;17.40
65290;BMP180;51893;59.754;10.110;2022-07-23T07:05:03;101557.20;;;17.50
65290;BMP180;51893;59.754;10.110;2022-07-23T07:07:34;101558.00;;;17.50
65290;BMP180;51893;59.754;10.110;2022-07-23T07:10:03;101554.80;;;17.60
65290;BMP180;51893;59.754;10.110;2022-07-23T07:12:31;101550.60;;;17.70
65290;BMP180;51893;59.754;10.110;2022-07-23T07:14:59;101550.00;;;17.76
65290;BMP180;51893;59.754;10.110;2022-07-23T07:17:27;101550.40;;;17.80
65290;BMP180;51893;59.754;10.110;2022-07-23T07:19:55;101558.00;;;17.90
65290;BMP180;51893;59.754;10.110;2022-07-23T07:22:22;101560.80;;;18.00
65290;BMP180;51893;59.754;10.110;2022-07-23T07:24:50;101557.40;;;18.08
65290;BMP180;51893;59.754;10.110;2022-07-23T07:27:18;101562.20;;;18.20
65290;BMP180;51893;59.754;10.110;2022-07-23T07:29:46;101562.20;;;18.30
65290;BMP180;51893;59.754;10.110;2022-07-23T07:32:14;101555.40;;;18.40
65290;BMP180;51893;59.754;10.110;2022-07-23T07:35:06;101557.40;;;18.50
65290;BMP180;51893;59.754;10.110;2022-07-23T07:37:34;101558.40;;;18.60
65290;BMP180;51893;59.754;10.110;2022-07-23T07:40:02;101554.60;;;18.60
65290;BMP180;51893;59.754;10.110;2022-07-23T07:42:30;101554.60;;;18.54
65290;BMP180;51893;59.754;10.110;2022-07-23T07:45:00;101555.20;;;18.60
65290;BMP180;51893;59.754;10.110;2022-07-23T07:47:28;101556.60;;;18.70
65290;BMP180;51893;59.754;10.110;2022-07-23T07:49:55;101560.40;;;18.70
65290;BMP180;51893;59.754;10.110;2022-07-23T07:52:23;101566.20;;;18.80
65290;BMP180;51893;59.754;10.110;2022-07-23T07:54:51;101568.00;;;18.80
65290;BMP180;51893;59.754;10.110;2022-07-23T07:57:19;101565.60;;;18.90
65290;BMP180;51893;59.754;10.110;2022-07-23T07:59:47;101564.80;;;18.90
65290;BMP180;51893;59.754;10.110;2022-07-23T08:02:21;101559.60;;;18.90
65290;BMP180;51893;59.754;10.110;2022-07-23T08:04:49;101564.00;;;18.90
65290;BMP180;51893;59.754;10.110;2022-07-23T08:07:17;101563.80;;;19.00
65290;BMP180;51893;59.754;10.110;2022-07-23T08:09:45;101561.00;;;19.10
65290;BMP180;51893;59.754;10.110;2022-07-23T08:12:12;101561.00;;;19.30
65290;BMP180;51893;59.754;10.110;2022-07-23T08:14:40;101560.60;;;19.40
65290;BMP180;51893;59.754;10.110;2022-07-23T08:17:08;101555.40;;;19.46
65290;BMP180;51893;59.754;10.110;2022-07-23T08:19:41;101559.20;;;19.60
65290;BMP180;51893;59.754;10.110;2022-07-23T08:22:10;101557.60;;;19.70
65290;BMP180;51893;59.754;10.110;2022-07-23T08:24:37;101564.80;;;19.80
65290;BMP180;51893;59.754;10.110;2022-07-23T08:27:05;101561.00;;;19.90
65290;BMP180;51893;59.754;10.110;2022-07-23T08:29:33;101562.00;;;19.90
65290;BMP180;51893;59.754;10.110;2022-07-23T08:32:01;101557.60;;;20.00
65290;BMP180;51893;59.754;10.110;2022-07-23T08:34:48;101556.20;;;20.10
65290;BMP180;51893;59.754;10.110;2022-07-23T08:37:16;101554.20;;;20.20
65290;BMP180;51893;59.754;10.110;2022-07-23T08:39:44;101560.80;;;20.20
65290;BMP180;51893;59.754;10.110;2022-07-23T08:42:14;101566.60;;;20.30
65290;BMP180;51893;59.754;10.110;2022-07-23T08:44:45;101572.40;;;20.30
65290;BMP180;51893;59.754;10.110;2022-07-23T08:47:15;101572.40;;;20.40
65290;BMP180;51893;59.754;10.110;2022-07-23T08:49:46;101574.60;;;20.50
65290;BMP180;51893;59.754;10.110;2022-07-23T08:52:15;101572.00;;;20.50
65290;BMP180;51893;59.754;10.110;2022-07-23T08:54:43;101569.80;;;20.60
65290;BMP180;51893;59.754;10.110;2022-07-23T08:57:11;101570.00;;;20.60
65290;BMP180;51893;59.754;10.110;2022-07-23T08:59:40;101576.60;;;20.66
65290;BMP180;51893;59.754;10.110;2022-07-23T09:02:08;101568.80;;;20.70
65290;BMP180;51893;59.754;10.110;2022-07-23T09:04:37;101571.80;;;20.70
65290;BMP180;51893;59.754;10.110;2022-07-23T09:07:05;101569.80;;;20.70
65290;BMP180;51893;59.754;10.110;2022-07-23T09:09:32;101572.00;;;20.70
65290;BMP180;51893;59.754;10.110;2022-07-23T09:12:06;101572.00;;;20.70
65290;BMP180;51893;59.754;10.110;2022-07-23T09:14:44;101573.00;;;20.70
65290;BMP180;51893;59.754;10.110;2022-07-23T09:17:17;101579.20;;;20.60
65290;BMP180;51893;59.754;10.110;2022-07-23T09:19:45;101576.20;;;20.60
65290;BMP180;51893;59.754;10.110;2022-07-23T09:22:22;101573.40;;;20.70
65290;BMP180;51893;59.754;10.110;2022-07-23T09:25:14;101574.00;;;20.90
65290;BMP180;51893;59.754;10.110;2022-07-23T09:27:57;101574.40;;;21.00
65290;BMP180;51893;59.754;10.110;2022-07-23T09:30:27;101576.20;;;21.10
65290;BMP180;51893;59.754;10.110;2022-07-23T09:33:06;101574.80;;;21.10
65290;BMP180;51893;59.754;10.110;2022-07-23T09:35:51;101580.80;;;21.10
65290;BMP180;51893;59.754;10.110;2022-07-23T09:38:22;101585.80;;;21.10
65290;BMP180;51893;59.754;10.110;2022-07-23T09:41:10;101586.00;;;21.16
65290;BMP180;51893;59.754;10.110;2022-07-23T09:43:39;101583.20;;;21.10
65290;BMP180;51893;59.754;10.110;2022-07-23T09:46:22;101586.80;;;21.04
65290;BMP180;51893;59.754;10.110;2022-07-23T09:48:55;101584.60;;;21.00
65290;BMP180;51893;59.754;10.110;2022-07-23T09:51:27;101588.60;;;21.06
65290;BMP180;51893;59.754;10.110;2022-07-23T09:54:04;101584.00;;;21.16
65290;BMP180;51893;59.754;10.110;2022-07-23T09:56:35;101582.80;;;21.22
65290;BMP180;51893;59.754;10.110;2022-07-23T09:59:04;101585.40;;;21.34
65290;BMP180;51893;59.754;10.110;2022-07-23T10:01:34;101589.20;;;21.40
65290;BMP180;51893;59.754;10.110;2022-07-23T10:04:03;101589.20;;;21.40
65290;BMP180;51893;59.754;10.110;2022-07-23T10:06:33;101588.60;;;21.40
65290;BMP180;51893;59.754;10.110;2022-07-23T10:09:02;101589.40;;;21.40
65290;BMP180;51893;59.754;10.110;2022-07-23T10:11:31;101594.20;;;21.36
65290;BMP180;51893;59.754;10.110;2022-07-23T10:14:02;101592.00;;;21.30
65290;BMP180;51893;59.754;10.110;2022-07-23T10:16:33;101597.20;;;21.40
65290;BMP180;51893;59.754;10.110;2022-07-23T10:19:03;101596.80;;;21.40
65290;BMP180;51893;59.754;10.110;2022-07-23T10:21:40;101593.00;;;21.46
65290;BMP180;51893;59.754;10.110;2022-07-23T10:24:50;101592.40;;;21.46
65290;BMP180;51893;59.754;10.110;2022-07-23T10:30:04;101590.60;;;21.50
65290;BMP180;51893;59.754;10.110;2022-07-23T10:36:03;101586.40;;;21.60
65290;BMP180;51893;59.754;10.110;2022-07-23T10:38:47;101581.20;;;21.60
65290;BMP180;51893;59.754;10.110;2022-07-23T10:41:30;101577.60;;;21.70
65290;BMP180;51893;59.754;10.110;2022-07-23T10:44:12;101577.20;;;21.80
65290;BMP180;51893;59.754;10.110;2022-07-23T10:46:55;101579.00;;;21.90
65290;BMP180;51893;59.754;10.110;2022-07-23T10:49:32;101579.60;;;22.00
65290;BMP180;51893;59.754;10.110;2022-07-23T10:52:21;101582.00;;;22.20
65290;BMP180;51893;59.754;10.110;2022-07-23T10:57:51;101581.60;;;22.40
65290;BMP180;51893;59.754;10.110;2022-07-23T11:00:28;101582.80;;;22.50
65290;BMP180;51893;59.754;10.110;2022-07-23T11:03:00;101588.00;;;22.60
65290;BMP180;51893;59.754;10.110;2022-07-23T11:05:46;101588.60;;;22.60
65290;BMP180;51893;59.754;10.110;2022-07-23T11:08:16;101584.20;;;22.60
65290;BMP180;51893;59.754;10.110;2022-07-23T11:13:39;101585.40;;;22.50
65290;BMP180;51893;59.754;10.110;2022-07-23T11:32:30;101593.80;;;22.20
65290;BMP180;51893;59.754;10.110;2022-07-23T11:34:58;101589.80;;;22.20
65290;BMP180;51893;59.754;10.110;2022-07-23T11:37:35;101586.40;;;22.28
65290;BMP180;51893;59.754;10.110;2022-07-23T11:40:13;101592.60;;;22.20
65290;BMP180;51893;59.754;10.110;2022-07-23T11:43:04;101593.80;;;22.20
65290;BMP180;51893;59.754;10.110;2022-07-23T11:45:45;101592.60;;;22.20
65290;BMP180;51893;59.754;10.110;2022-07-23T11:48:24;101588.40;;;22.20
65290;BMP180;51893;59.754;10.110;2022-07-23T11:50:55;101584.80;;;22.20
65290;BMP180;51893;59.754;10.110;2022-07-23T11:53:34;101579.40;;;22.20
65290;BMP180;51893;59.754;10.110;2022-07-23T11:56:11;101580.20;;;22.20
65290;BMP180;51893;59.754;10.110;2022-07-23T11:58:54;101576.60;;;22.20
65290;BMP180;51893;59.754;10.110;2022-07-23T12:01:23;101575.20;;;22.10
65290;BMP180;51893;59.754;10.110;2022-07-23T12:03:53;101579.20;;;22.00
65290;BMP180;51893;59.754;10.110;2022-07-23T12:06:21;101574.60;;;22.06
65290;BMP180;51893;59.754;10.110;2022-07-23T12:08:49;101573.20;;;22.00
65290;BMP180;51893;59.754;10.110;2022-07-23T12:11:17;101565.20;;;22.00
65290;BMP180;51893;59.754;10.110;2022-07-23T12:13:57;101566.80;;;21.92
65290;BMP180;51893;59.754;10.110;2022-07-23T12:16:25;101567.00;;;21.90
65290;BMP180;51893;59.754;10.110;2022-07-23T12:18:53;101565.80;;;21.80
65290;BMP180;51893;59.754;10.110;2022-07-23T12:21:22;101564.00;;;21.80
65290;BMP180;51893;59.754;10.110;2022-07-23T12:23:49;101566.40;;;21.70
65290;BMP180;51893;59.754;10.110;2022-07-23T12:26:17;101563.80;;;21.66
65290;BMP180;51893;59.754;10.110;2022-07-23T12:28:52;101566.20;;;21.60
65290;BMP180;51893;59.754;10.110;2022-07-23T12:31:27;101560.80;;;21.50
65290;BMP180;51893;59.754;10.110;2022-07-23T12:33:55;101560.60;;;21.60
65290;BMP180;51893;59.754;10.110;2022-07-23T12:36:38;101559.20;;;21.60
65290;BMP180;51893;59.754;10.110;2022-07-23T12:39:07;101556.00;;;21.60
65290;BMP180;51893;59.754;10.110;2022-07-23T12:41:52;101556.00;;;21.72
65290;BMP180;51893;59.754;10.110;2022-07-23T12:44:20;101559.40;;;21.78
65290;BMP180;51893;59.754;10.110;2022-07-23T12:46:52;101563.20;;;21.70
65290;BMP180;51893;59.754;10.110;2022-07-23T12:49:28;101557.80;;;21.76
65290;BMP180;51893;59.754;10.110;2022-07-23T12:51:57;101555.40;;;21.78
65290;BMP180;51893;59.754;10.110;2022-07-23T12:54:28;101552.00;;;21.80
65290;BMP180;51893;59.754;10.110;2022-07-23T12:56:57;101552.80;;;21.90
65290;BMP180;51893;59.754;10.110;2022-07-23T12:59:31;101549.80;;;21.90
65290;BMP180;51893;59.754;10.110;2022-07-23T13:01:59;101549.40;;;21.90
65290;BMP180;51893;59.754;10.110;2022-07-23T13:04:29;101547.20;;;21.90
65290;BMP180;51893;59.754;10.110;2022-07-23T13:07:00;101548.40;;;21.90
65290;BMP180;51893;59.754;10.110;2022-07-23T13:09:34;101537.20;;;21.90
65290;BMP180;51893;59.754;10.110;2022-07-23T13:12:09;101539.60;;;22.00
65290;BMP180;51893;59.754;10.110;2022-07-23T13:14:38;101538.80;;;22.00
65290;BMP180;51893;59.754;10.110;2022-07-23T13:17:08;101535.60;;;22.00
65290;BMP180;51893;59.754;10.110;2022-07-23T13:19:36;101531.60;;;22.10
65290;BMP180;51893;59.754;10.110;2022-07-23T13:22:04;101535.60;;;22.10
65290;BMP180;51893;59.754;10.110;2022-07-23T13:24:36;101537.20;;;22.08
65290;BMP180;51893;59.754;10.110;2022-07-23T13:27:06;101536.20;;;22.10
65290;BMP180;51893;59.754;10.110;2022-07-23T13:29:40;101536.00;;;22.06
65290;BMP180;51893;59.754;10.110;2022-07-23T13:32:08;101540.20;;;22.00
65290;BMP180;51893;59.754;10.110;2022-07-23T13:34:40;101540.00;;;22.00
65290;BMP180;51893;59.754;10.110;2022-07-23T13:37:08;101542.20;;;22.00
65290;BMP180;51893;59.754;10.110;2022-07-23T13:39:37;101541.60;;;22.00
65290;BMP180;51893;59.754;10.110;2022-07-23T13:42:06;101537.60;;;22.00
65290;BMP180;51893;59.754;10.110;2022-07-23T13:44:35;101538.00;;;22.00
65290;BMP180;51893;59.754;10.110;2022-07-23T13:47:03;101535.60;;;22.08
65290;BMP180;51893;59.754;10.110;2022-07-23T13:49:31;101532.60;;;22.10
65290;BMP180;51893;59.754;10.110;2022-07-23T13:52:03;101526.00;;;22.12
65290;BMP180;51893;59.754;10.110;2022-07-23T13:54:35;101527.00;;;22.20
65290;BMP180;51893;59.754;10.110;2022-07-23T13:57:03;101530.00;;;22.20
65290;BMP180;51893;59.754;10.110;2022-07-23T13:59:32;101531.20;;;22.10
65290;BMP180;51893;59.754;10.110;2022-07-23T14:02:01;101533.20;;;22.10
65290;BMP180;51893;59.754;10.110;2022-07-23T14:04:50;101526.60;;;22.10
65290;BMP180;51893;59.754;10.110;2022-07-23T14:07:18;101530.80;;;22.10
65290;BMP180;51893;59.754;10.110;2022-07-23T14:09:47;101529.40;;;22.20
65290;BMP180;51893;59.754;10.110;2022-07-23T14:12:15;101525.20;;;22.30
65290;BMP180;51893;59.754;10.110;2022-07-23T14:14:44;101526.00;;;22.40
65290;BMP180;51893;59.754;10.110;2022-07-23T14:17:13;101520.60;;;22.50
65290;BMP180;51893;59.754;10.110;2022-07-23T14:19:42;101525.00;;;22.60
65290;BMP180;51893;59.754;10.110;2022-07-23T14:22:11;101527.00;;;22.60
65290;BMP180;51893;59.754;10.110;2022-07-23T14:24:40;101524.80;;;22.60
65290;BMP180;51893;59.754;10.110;2022-07-23T14:27:08;101525.00;;;22.70
65290;BMP180;51893;59.754;10.110;2022-07-23T14:29:36;101521.00;;;22.80